| time (UTC) | temp C | wind direction | speed KPH | gust KPH | rain 1hr cm | rain 24hr cm | rain mn cm | humidity % | barometer mb |
| 20260510180248 | 22 | 250 | 9.7 | 12.9 | 0.00 | 0.00 | 0.00 | 45 | 1018.1 |
| 20260510175745 | 23 | 295 | 3.2 | 4.8 | 0.00 | 0.00 | 0.00 | 45 | 1018.1 |
| 20260510175240 | 22 | 328 | 6.4 | 12.9 | 0.00 | 0.00 | 0.00 | 45 | 1018.5 |
| 20260510174737 | 23 | 80 | 9.7 | 16.1 | 0.00 | 0.00 | 0.00 | 48 | 1018.4 |
| 20260510174234 | 22 | 155 | 0.0 | 6.4 | 0.00 | 0.00 | 0.00 | 48 | 1018.6 |
| 20260510173725 | 22 | 58 | 1.6 | 3.2 | 0.00 | 0.00 | 0.00 | 52 | 1018.6 |
| 20260510173220 | 22 | 71 | 3.2 | 11.3 | 0.00 | 0.00 | 0.00 | 48 | 1018.7 |
| 20260510172716 | 22 | 323 | 6.4 | 12.9 | 0.00 | 0.00 | 0.00 | 48 | 1019.0 |
| 20260510172213 | 22 | 205 | 4.8 | 14.5 | 0.00 | 0.00 | 0.00 | 48 | 1019.1 |
| 20260510171710 | 22 | 16 | 3.2 | 3.2 | 0.00 | 0.00 | 0.00 | 51 | 1019.0 |
| 20260510171207 | 22 | 208 | 9.7 | 12.9 | 0.00 | 0.00 | 0.00 | 47 | 1018.9 |
| 20260510170704 | 21 | 149 | 4.8 | 6.4 | 0.00 | 0.00 | 0.00 | 56 | 1018.8 |
| 20260510170200 | 22 | 339 | 6.4 | 9.7 | 0.00 | 0.00 | 0.00 | 50 | 1019.0 |
| 20260510165656 | 22 | 227 | 9.7 | 14.5 | 0.00 | 0.00 | 0.00 | 48 | 1019.0 |
| 20260510165152 | 21 | 240 | 4.8 | 12.9 | 0.00 | 0.00 | 0.00 | 50 | 1018.9 |
| 20260510164650 | 20 | 183 | 4.8 | 17.7 | 0.00 | 0.00 | 0.00 | 58 | 1019.0 |
| 20260510164147 | 20 | 252 | 3.2 | 11.3 | 0.00 | 0.00 | 0.00 | 54 | 1018.9 |
| 20260510163642 | 21 | 198 | 6.4 | 14.5 | 0.00 | 0.00 | 0.00 | 51 | 1019.0 |
| 20260510163137 | 21 | 221 | 0.0 | 3.2 | 0.00 | 0.00 | 0.00 | 53 | 1019.1 |
| 20260510162631 | 21 | 214 | 3.2 | 9.7 | 0.00 | 0.00 | 0.00 | 50 | 1019.0 |
| 20260510162128 | 22 | 251 | 3.2 | 9.7 | 0.00 | 0.00 | 0.00 | 48 | 1018.9 |
| 20260510161624 | 22 | 246 | 6.4 | 14.5 | 0.00 | 0.00 | 0.00 | 49 | 1018.9 |
| 20260510161121 | 21 | 256 | 6.4 | 12.9 | 0.00 | 0.00 | 0.00 | 51 | 1019.2 |
| 20260510160618 | 21 | 290 | 6.4 | 14.5 | 0.00 | 0.00 | 0.00 | 50 | 1019.0 |
| 20260510160118 | 20 | 307 | 0.0 | 11.3 | 0.00 | 0.00 | 0.00 | 52 | 1019.0 |
| 20260510155615 | 20 | 336 | 4.8 | 4.8 | 0.00 | 0.00 | 0.00 | 49 | 1018.9 |
| 20260510155111 | 20 | 254 | 9.7 | 16.1 | 0.00 | 0.00 | 0.00 | 50 | 1019.0 |
| 20260510154606 | 21 | 256 | 4.8 | 11.3 | 0.00 | 0.00 | 0.00 | 52 | 1019.1 |
| 20260510154102 | 21 | 201 | 9.7 | 11.3 | 0.00 | 0.00 | 0.00 | 50 | 1019.1 |
| 20260510153557 | 21 | 232 | 11.3 | 12.9 | 0.00 | 0.00 | 0.00 | 48 | 1019.0 |
| 20260510153054 | 21 | 256 | 9.7 | 12.9 | 0.00 | 0.00 | 0.00 | 51 | 1019.0 |
| 20260510152551 | 21 | 262 | 3.2 | 24.1 | 0.00 | 0.00 | 0.00 | 53 | 1019.0 |
| 20260510152048 | 21 | 277 | 3.2 | 12.9 | 0.00 | 0.00 | 0.00 | 53 | 1019.0 |
| 20260510151544 | 20 | 222 | 3.2 | 9.7 | 0.00 | 0.00 | 0.00 | 53 | 1019.0 |
| 20260510151042 | 21 | 220 | 3.2 | 14.5 | 0.00 | 0.00 | 0.00 | 52 | 1018.9 |
| 20260510150537 | 21 | 150 | 3.2 | 11.3 | 0.00 | 0.00 | 0.00 | 54 | 1018.9 |
| 20260510150033 | 21 | 234 | 9.7 | 14.5 | 0.00 | 0.00 | 0.00 | 51 | 1018.8 |
| 20260510145530 | 20 | 251 | 6.4 | 11.3 | 0.00 | 0.00 | 0.00 | 54 | 1018.9 |
| 20260510145026 | 20 | 250 | 9.7 | 12.9 | 0.00 | 0.00 | 0.00 | 54 | 1018.9 |
| 20260510144523 | 20 | 245 | 12.9 | 17.7 | 0.00 | 0.00 | 0.00 | 52 | 1018.9 |
| 20260510144019 | 20 | 212 | 4.8 | 6.4 | 0.00 | 0.00 | 0.00 | 54 | 1018.8 |
| 20260510143514 | 20 | 314 | 6.4 | 11.3 | 0.00 | 0.00 | 0.00 | 54 | 1018.9 |
| 20260510143011 | 20 | 254 | 4.8 | 9.7 | 0.00 | 0.00 | 0.00 | 57 | 1018.7 |
| 20260510142508 | 20 | 280 | 4.8 | 12.9 | 0.00 | 0.00 | 0.00 | 56 | 1018.8 |
| 20260510142004 | 20 | 270 | 6.4 | 14.5 | 0.00 | 0.00 | 0.00 | 56 | 1018.6 |
| 20260510141501 | 20 | 243 | 9.7 | 14.5 | 0.00 | 0.00 | 0.00 | 56 | 1018.8 |
| 20260510140959 | 19 | 254 | 1.6 | 14.5 | 0.00 | 0.00 | 0.00 | 59 | 1018.7 |
| 20260510140454 | 19 | 250 | 9.7 | 22.5 | 0.00 | 0.00 | 0.00 | 57 | 1018.7 |
| 20260510135954 | 18 | 274 | 4.8 | 11.3 | 0.00 | 0.00 | 0.00 | 60 | 1018.9 |
| 20260510135450 | 18 | 246 | 6.4 | 9.7 | 0.00 | 0.00 | 0.00 | 59 | 1018.8 |
| 20260510134947 | 18 | 205 | 6.4 | 11.3 | 0.00 | 0.00 | 0.00 | 60 | 1018.8 |
| 20260510134444 | 18 | 220 | 4.8 | 9.7 | 0.00 | 0.00 | 0.00 | 62 | 1018.8 |
| 20260510133941 | 18 | 246 | 4.8 | 11.3 | 0.00 | 0.00 | 0.00 | 62 | 1019.0 |
| 20260510133436 | 17 | 232 | 4.8 | 16.1 | 0.00 | 0.00 | 0.00 | 64 | 1018.8 |
| 20260510132932 | 17 | 242 | 6.4 | 11.3 | 0.00 | 0.00 | 0.00 | 64 | 1019.0 |
| 20260510132430 | 17 | 289 | 11.3 | 14.5 | 0.00 | 0.00 | 0.00 | 64 | 1019.0 |
| 20260510131927 | 17 | 264 | 3.2 | 9.7 | 0.00 | 0.00 | 0.00 | 67 | 1018.9 |
| 20260510131424 | 16 | 269 | 6.4 | 9.7 | 0.00 | 0.00 | 0.00 | 67 | 1018.7 |
| 20260510130920 | 16 | 224 | 8.0 | 12.9 | 0.00 | 0.00 | 0.00 | 67 | 1018.8 |
| 20260510130418 | 16 | 281 | 3.2 | 9.7 | 0.00 | 0.00 | 0.00 | 70 | 1018.8 |
| 20260510125915 | 15 | 252 | 3.2 | 9.7 | 0.00 | 0.00 | 0.00 | 71 | 1018.7 |
| 20260510125410 | 15 | 226 | 6.4 | 14.5 | 0.00 | 0.00 | 0.00 | 71 | 1018.9 |
| 20260510124908 | 15 | 218 | 3.2 | 4.8 | 0.00 | 0.00 | 0.00 | 74 | 1018.7 |
| 20260510124404 | 15 | 212 | 3.2 | 6.4 | 0.00 | 0.00 | 0.00 | 74 | 1018.8 |
| 20260510123900 | 15 | 209 | 1.6 | 9.7 | 0.00 | 0.00 | 0.00 | 73 | 1018.8 |
| 20260510123356 | 14 | 242 | 3.2 | 9.7 | 0.00 | 0.00 | 0.00 | 74 | 1018.7 |
| 20260510122853 | 14 | 292 | 3.2 | 4.8 | 0.00 | 0.00 | 0.00 | 74 | 1018.8 |
| 20260510122348 | 14 | 224 | 6.4 | 6.4 | 0.00 | 0.00 | 0.00 | 75 | 1018.6 |
| 20260510121845 | 14 | 244 | 3.2 | 6.4 | 0.00 | 0.00 | 0.00 | 76 | 1018.4 |
| 20260510121343 | 13 | 271 | 6.4 | 12.9 | 0.00 | 0.00 | 0.00 | 76 | 1018.4 |
| 20260510120839 | 13 | 288 | 4.8 | 12.9 | 0.00 | 0.00 | 0.00 | 77 | 1018.2 |
| 20260510120337 | 13 | 244 | 4.8 | 6.4 | 0.00 | 0.00 | 0.00 | 76 | 1018.1 |
| 20260510115832 | 13 | 285 | 6.4 | 9.7 | 0.00 | 0.00 | 0.00 | 76 | 1018.1 |
| 20260510115330 | 13 | 266 | 3.2 | 9.7 | 0.00 | 0.00 | 0.00 | 76 | 1018.1 |
| 20260510114825 | 13 | 294 | 6.4 | 9.7 | 0.00 | 0.00 | 0.00 | 76 | 1018.2 |
| 20260510114323 | 13 | 266 | 4.8 | 11.3 | 0.00 | 0.00 | 0.00 | 77 | 1018.1 |
| 20260510113817 | 13 | 237 | 9.7 | 12.9 | 0.00 | 0.00 | 0.00 | 77 | 1018.1 |
| 20260510113314 | 13 | 240 | 6.4 | 9.7 | 0.00 | 0.00 | 0.00 | 77 | 1018.1 |
| 20260510112811 | 13 | 238 | 4.8 | 9.7 | 0.00 | 0.00 | 0.00 | 77 | 1018.2 |
| 20260510112308 | 13 | 221 | 6.4 | 12.9 | 0.00 | 0.00 | 0.00 | 78 | 1018.1 |
| 20260510111804 | 13 | 254 | 3.2 | 17.7 | 0.00 | 0.00 | 0.00 | 78 | 1018.1 |
| 20260510111301 | 12 | 227 | 9.7 | 14.5 | 0.00 | 0.00 | 0.00 | 79 | 1018.0 |
| 20260510110800 | 12 | 230 | 8.0 | 14.5 | 0.00 | 0.00 | 0.00 | 80 | 1018.0 |
| 20260510110258 | 12 | 254 | 4.8 | 6.4 | 0.00 | 0.00 | 0.00 | 82 | 1017.8 |
| 20260510105759 | 11 | 246 | 3.2 | 4.8 | 0.00 | 0.00 | 0.00 | 84 | 1017.8 |
| 20260510105253 | 11 | 264 | 3.2 | 4.8 | 0.00 | 0.00 | 0.00 | 84 | 1017.8 |
| 20260510104750 | 11 | 274 | 3.2 | 6.4 | 0.00 | 0.00 | 0.00 | 84 | 1017.6 |
| 20260510104248 | 11 | 218 | 4.8 | 6.4 | 0.00 | 0.00 | 0.00 | 84 | 1017.7 |
| 20260510103744 | 11 | 232 | 6.4 | 6.4 | 0.00 | 0.00 | 0.00 | 83 | 1017.6 |
| 20260510103241 | 11 | 258 | 3.2 | 12.9 | 0.00 | 0.00 | 0.00 | 83 | 1017.4 |
| 20260510102741 | 11 | 255 | 3.2 | 9.7 | 0.00 | 0.00 | 0.00 | 83 | 1017.2 |
| 20260510102236 | 12 | 249 | 3.2 | 6.4 | 0.00 | 0.00 | 0.00 | 82 | 1017.1 |
| 20260510101734 | 12 | 239 | 3.2 | 9.7 | 0.00 | 0.00 | 0.00 | 81 | 1017.0 |
| 20260510101233 | 12 | 247 | 3.2 | 11.3 | 0.00 | 0.00 | 0.00 | 81 | 1017.1 |
| 20260510100728 | 12 | 222 | 3.2 | 6.4 | 0.00 | 0.00 | 0.00 | 81 | 1016.8 |
| 20260510100226 | 12 | 188 | 4.8 | 6.4 | 0.00 | 0.00 | 0.00 | 81 | 1017.0 |
| 20260510095721 | 12 | 208 | 6.4 | 6.4 | 0.00 | 0.00 | 0.00 | 81 | 1017.0 |
| 20260510095217 | 12 | 288 | 6.4 | 9.7 | 0.00 | 0.00 | 0.00 | 81 | 1017.1 |
| 20260510094716 | 12 | 242 | 1.6 | 4.8 | 0.00 | 0.00 | 0.00 | 82 | 1017.1 |
| 20260510094212 | 12 | 246 | 3.2 | 4.8 | 0.00 | 0.00 | 0.00 | 82 | 1017.1 |
| 20260510093708 | 12 | 207 | 3.2 | 6.4 | 0.00 | 0.00 | 0.00 | 82 | 1017.0 |
| 20260510093205 | 12 | 233 | 4.8 | 11.3 | 0.00 | 0.00 | 0.00 | 82 | 1017.0 |
| 20260510092701 | 12 | 164 | 3.2 | 9.7 | 0.00 | 0.00 | 0.00 | 82 | 1016.8 |
| 20260510092157 | 12 | 269 | 3.2 | 11.3 | 0.00 | 0.00 | 0.00 | 83 | 1016.7 |
| 20260510091653 | 12 | 228 | 1.6 | 9.7 | 0.00 | 0.00 | 0.00 | 84 | 1016.7 |
| 20260510091149 | 12 | 251 | 9.7 | 14.5 | 0.00 | 0.00 | 0.00 | 84 | 1016.6 |
| 20260510090646 | 12 | 312 | 8.0 | 12.9 | 0.00 | 0.00 | 0.00 | 85 | 1016.4 |
| 20260510090143 | 12 | 201 | 3.2 | 11.3 | 0.00 | 0.00 | 0.00 | 84 | 1016.3 |
| 20260510085638 | 12 | 252 | 6.4 | 9.7 | 0.00 | 0.00 | 0.00 | 85 | 1016.3 |
| 20260510085133 | 11 | 239 | 6.4 | 12.9 | 0.00 | 0.00 | 0.00 | 85 | 1016.5 |
| 20260510084630 | 11 | 227 | 3.2 | 6.4 | 0.00 | 0.00 | 0.00 | 85 | 1016.4 |
| 20260510084126 | 11 | 225 | 4.8 | 6.4 | 0.00 | 0.00 | 0.00 | 86 | 1016.5 |
| 20260510083623 | 11 | 243 | 8.0 | 12.9 | 0.00 | 0.00 | 0.00 | 86 | 1016.4 |
| 20260510083119 | 11 | 262 | 6.4 | 11.3 | 0.00 | 0.00 | 0.00 | 85 | 1016.4 |
| 20260510082615 | 11 | 235 | 3.2 | 9.7 | 0.00 | 0.00 | 0.00 | 85 | 1016.3 |
| 20260510082111 | 11 | 238 | 6.4 | 11.3 | 0.00 | 0.00 | 0.00 | 85 | 1016.4 |
| 20260510081606 | 11 | 276 | 6.4 | 12.9 | 0.00 | 0.00 | 0.00 | 85 | 1016.3 |
| 20260510081102 | 11 | 239 | 6.4 | 11.3 | 0.00 | 0.00 | 0.00 | 86 | 1016.2 |
| 20260510080601 | 11 | 256 | 4.8 | 6.4 | 0.00 | 0.00 | 0.00 | 86 | 1016.2 |
| 20260510080058 | 11 | 222 | 3.2 | 9.7 | 0.00 | 0.00 | 0.00 | 85 | 1016.1 |
| 20260510075555 | 11 | 243 | 4.8 | 11.3 | 0.00 | 0.00 | 0.00 | 86 | 1016.0 |
| 20260510075052 | 11 | 243 | 6.4 | 9.7 | 0.00 | 0.00 | 0.00 | 85 | 1015.9 |
| 20260510074550 | 11 | 260 | 3.2 | 9.7 | 0.00 | 0.00 | 0.00 | 85 | 1015.9 |
| 20260510074045 | 11 | 235 | 4.8 | 11.3 | 0.00 | 0.00 | 0.00 | 85 | 1015.8 |
| 20260510073541 | 11 | 327 | 6.4 | 9.7 | 0.00 | 0.00 | 0.00 | 86 | 1016.0 |
| 20260510073039 | 11 | 212 | 3.2 | 11.3 | 0.00 | 0.00 | 0.00 | 86 | 1015.7 |
| 20260510072535 | 11 | 260 | 4.8 | 9.7 | 0.00 | 0.00 | 0.00 | 86 | 1015.9 |
| 20260510072031 | 11 | 258 | 6.4 | 9.7 | 0.00 | 0.00 | 0.00 | 86 | 1015.9 |
| 20260510071527 | 11 | 277 | 4.8 | 6.4 | 0.00 | 0.00 | 0.00 | 85 | 1016.0 |
| 20260510071025 | 11 | 227 | 3.2 | 9.7 | 0.00 | 0.00 | 0.00 | 85 | 1015.9 |
| 20260510070522 | 11 | 294 | 4.8 | 9.7 | 0.00 | 0.00 | 0.00 | 85 | 1015.8 |
| 20260510070019 | 11 | 246 | 3.2 | 6.4 | 0.00 | 0.00 | 0.00 | 84 | 1015.7 |
| 20260510065515 | 11 | 274 | 4.8 | 9.7 | 0.00 | 0.00 | 0.00 | 85 | 1015.8 |
| 20260510065011 | 11 | 254 | 4.8 | 6.4 | 0.00 | 0.00 | 0.00 | 83 | 1015.9 |
| 20260510064508 | 11 | 231 | 3.2 | 9.7 | 0.00 | 0.00 | 0.00 | 84 | 1016.0 |
| 20260510064005 | 12 | 224 | 3.2 | 9.7 | 0.00 | 0.00 | 0.00 | 83 | 1015.9 |
| 20260510063501 | 12 | 236 | 6.4 | 9.7 | 0.00 | 0.00 | 0.00 | 82 | 1015.8 |
| 20260510062959 | 12 | 226 | 3.2 | 4.8 | 0.00 | 0.00 | 0.00 | 82 | 1015.8 |
| 20260510062454 | 12 | 249 | 6.4 | 11.3 | 0.00 | 0.00 | 0.00 | 82 | 1015.9 |
| 20260510061949 | 12 | 234 | 4.8 | 11.3 | 0.00 | 0.00 | 0.00 | 81 | 1016.0 |
| 20260510061446 | 12 | 234 | 3.2 | 9.7 | 0.00 | 0.00 | 0.00 | 81 | 1015.9 |
| 20260510060943 | 12 | 238 | 3.2 | 6.4 | 0.00 | 0.00 | 0.00 | 81 | 1015.6 |
| 20260510060440 | 12 | 277 | 3.2 | 6.4 | 0.00 | 0.00 | 0.00 | 80 | 1015.9 |
| 20260510055936 | 12 | 252 | 3.2 | 9.7 | 0.00 | 0.00 | 0.00 | 80 | 1015.7 |
| 20260510055432 | 12 | 249 | 1.6 | 4.8 | 0.00 | 0.00 | 0.00 | 80 | 1015.9 |
| 20260510054931 | 12 | 226 | 3.2 | 9.7 | 0.00 | 0.00 | 0.00 | 80 | 1015.8 |
| 20260510054431 | 12 | 290 | 4.8 | 9.7 | 0.00 | 0.00 | 0.00 | 80 | 1015.9 |
| 20260510053926 | 12 | 216 | 4.8 | 6.4 | 0.00 | 0.00 | 0.00 | 80 | 1016.0 |
| 20260510053422 | 12 | 215 | 1.6 | 11.3 | 0.00 | 0.00 | 0.00 | 79 | 1015.8 |
| 20260510052918 | 12 | 205 | 1.6 | 3.2 | 0.00 | 0.00 | 0.00 | 79 | 1016.0 |
| 20260510052414 | 12 | 234 | 4.8 | 6.4 | 0.00 | 0.00 | 0.00 | 80 | 1016.1 |
| 20260510051911 | 12 | 240 | 1.6 | 6.4 | 0.00 | 0.00 | 0.00 | 79 | 1016.0 |
| 20260510051407 | 12 | 245 | 3.2 | 6.4 | 0.00 | 0.00 | 0.00 | 80 | 1016.0 |
| 20260510050904 | 12 | 229 | 1.6 | 6.4 | 0.00 | 0.00 | 0.00 | 80 | 1016.0 |
| 20260510050400 | 12 | 242 | 1.6 | 4.8 | 0.00 | 0.00 | 0.00 | 80 | 1016.2 |
| 20260510045857 | 12 | 240 | 3.2 | 4.8 | 0.00 | 0.00 | 0.00 | 80 | 1016.1 |
| 20260510045354 | 12 | 230 | 1.6 | 3.2 | 0.00 | 0.00 | 0.00 | 80 | 1015.9 |
| 20260510044851 | 12 | 225 | 1.6 | 1.6 | 0.00 | 0.00 | 0.00 | 82 | 1015.8 |
| 20260510044348 | 11 | 210 | 1.6 | 3.2 | 0.00 | 0.00 | 0.00 | 82 | 1015.8 |
| 20260510043844 | 11 | 225 | 0.0 | 1.6 | 0.00 | 0.00 | 0.00 | 82 | 1015.9 |
| 20260510043340 | 11 | 229 | 1.6 | 1.6 | 0.00 | 0.00 | 0.00 | 82 | 1016.1 |
| 20260510042839 | 11 | 228 | 0.0 | 1.6 | 0.00 | 0.00 | 0.00 | 82 | 1016.0 |
| 20260510042334 | 11 | 213 | 1.6 | 1.6 | 0.00 | 0.00 | 0.00 | 82 | 1016.0 |
| 20260510041831 | 11 | 205 | 1.6 | 1.6 | 0.00 | 0.00 | 0.00 | 82 | 1015.9 |
| 20260510041328 | 11 | 225 | 0.0 | 1.6 | 0.00 | 0.00 | 0.00 | 81 | 1015.7 |
| 20260510040825 | 12 | 224 | 0.0 | 1.6 | 0.00 | 0.00 | 0.00 | 80 | 1015.8 |
| 20260510040322 | 12 | 238 | 1.6 | 1.6 | 0.00 | 0.00 | 0.00 | 80 | 1016.0 |
| 20260510035817 | 12 | 213 | 0.0 | 1.6 | 0.00 | 0.00 | 0.00 | 80 | 1015.8 |
| 20260510035314 | 12 | 213 | 0.0 | 1.6 | 0.00 | 0.00 | 0.00 | 79 | 1015.8 |
| 20260510034809 | 12 | 209 | 0.0 | 3.2 | 0.00 | 0.00 | 0.00 | 77 | 1015.9 |
| 20260510034307 | 13 | 242 | 0.0 | 1.6 | 0.00 | 0.00 | 0.00 | 76 | 1015.7 |
| 20260510033803 | 13 | 259 | 3.2 | 3.2 | 0.00 | 0.00 | 0.00 | 75 | 1015.7 |
| 20260510033301 | 13 | 229 | 1.6 | 3.2 | 0.00 | 0.00 | 0.00 | 74 | 1015.7 |
| 20260510032758 | 13 | 270 | 1.6 | 3.2 | 0.00 | 0.00 | 0.00 | 74 | 1015.6 |
| 20260510032254 | 13 | 238 | 3.2 | 4.8 | 0.00 | 0.00 | 0.00 | 74 | 1015.8 |
| 20260510031750 | 13 | 232 | 3.2 | 6.4 | 0.00 | 0.00 | 0.00 | 73 | 1015.7 |
| 20260510031245 | 13 | 222 | 3.2 | 9.7 | 0.00 | 0.00 | 0.00 | 73 | 1015.6 |
| 20260510030745 | 13 | 246 | 3.2 | 4.8 | 0.00 | 0.00 | 0.00 | 73 | 1015.7 |
| 20260510030242 | 13 | 248 | 4.8 | 4.8 | 0.00 | 0.00 | 0.00 | 72 | 1015.7 |
| 20260510025739 | 14 | 248 | 1.6 | 3.2 | 0.00 | 0.00 | 0.00 | 71 | 1015.7 |
| 20260510025237 | 14 | 260 | 3.2 | 4.8 | 0.00 | 0.00 | 0.00 | 71 | 1015.6 |
| 20260510024728 | 14 | 233 | 1.6 | 4.8 | 0.00 | 0.00 | 0.00 | 70 | 1015.9 |
| 20260510024225 | 14 | 238 | 4.8 | 6.4 | 0.00 | 0.00 | 0.00 | 70 | 1015.9 |
| 20260510023720 | 14 | 254 | 4.8 | 6.4 | 0.00 | 0.00 | 0.00 | 70 | 1015.7 |
| 20260510023218 | 14 | 233 | 1.6 | 4.8 | 0.00 | 0.00 | 0.00 | 71 | 1015.9 |
| 20260510022714 | 14 | 234 | 1.6 | 6.4 | 0.00 | 0.00 | 0.00 | 70 | 1015.7 |
| 20260510022209 | 13 | 236 | 3.2 | 4.8 | 0.00 | 0.00 | 0.00 | 70 | 1015.6 |
| 20260510021709 | 13 | 213 | 3.2 | 9.7 | 0.00 | 0.00 | 0.00 | 70 | 1015.4 |
| 20260510021207 | 13 | 228 | 1.6 | 1.6 | 0.00 | 0.00 | 0.00 | 71 | 1015.3 |
| 20260510020702 | 13 | 223 | 1.6 | 1.6 | 0.00 | 0.00 | 0.00 | 71 | 1015.2 |
| 20260510020156 | 13 | 220 | 0.0 | 1.6 | 0.00 | 0.00 | 0.00 | 71 | 1015.1 |
| 20260510015653 | 14 | 233 | 3.2 | 3.2 | 0.00 | 0.00 | 0.00 | 70 | 1015.2 |
| 20260510015150 | 13 | 271 | 3.2 | 4.8 | 0.00 | 0.00 | 0.00 | 71 | 1014.9 |
| 20260510014649 | 13 | 248 | 1.6 | 1.6 | 0.00 | 0.00 | 0.00 | 72 | 1015.1 |
| 20260510014147 | 13 | 225 | 0.0 | 1.6 | 0.00 | 0.00 | 0.00 | 71 | 1014.8 |
| 20260510013642 | 14 | 195 | 0.0 | 4.8 | 0.00 | 0.00 | 0.00 | 70 | 1014.5 |
| 20260510013138 | 13 | 238 | 3.2 | 4.8 | 0.00 | 0.00 | 0.00 | 71 | 1014.6 |
| 20260510012638 | 13 | 251 | 0.0 | 4.8 | 0.00 | 0.00 | 0.00 | 71 | 1014.6 |
| 20260510012134 | 13 | 209 | 1.6 | 3.2 | 0.00 | 0.00 | 0.00 | 72 | 1014.4 |
| 20260510011634 | 13 | 212 | 0.0 | 1.6 | 0.00 | 0.00 | 0.00 | 73 | 1014.5 |
| 20260510011130 | 13 | 207 | 0.0 | 0.0 | 0.00 | 0.00 | 0.00 | 74 | 1014.6 |
| 20260510010626 | 13 | 203 | 0.0 | 0.0 | 0.00 | 0.00 | 0.00 | 73 | 1014.4 |
| 20260510010124 | 13 | 207 | 0.0 | 1.6 | 0.00 | 0.00 | 0.00 | 72 | 1014.3 |
| 20260510005619 | 14 | 200 | 0.0 | 1.6 | 0.00 | 0.00 | 0.00 | 71 | 1014.3 |
| 20260510005117 | 14 | 205 | 0.0 | 3.2 | 0.00 | 0.00 | 0.00 | 69 | 1014.3 |
| 20260510004615 | 15 | 191 | 0.0 | 1.6 | 0.00 | 0.00 | 0.00 | 68 | 1014.0 |
| 20260510004113 | 15 | 226 | 1.6 | 4.8 | 0.00 | 0.00 | 0.00 | 65 | 1014.2 |
| 20260510003609 | 15 | 230 | 3.2 | 4.8 | 0.00 | 0.00 | 0.00 | 64 | 1013.8 |
| 20260510003105 | 15 | 248 | 0.0 | 3.2 | 0.00 | 0.00 | 0.00 | 66 | 1014.0 |
| 20260510002600 | 15 | 262 | 0.0 | 1.6 | 0.00 | 0.00 | 0.00 | 65 | 1014.2 |
| 20260510002057 | 15 | 229 | 1.6 | 1.6 | 0.00 | 0.00 | 0.00 | 64 | 1014.0 |
| 20260510001554 | 15 | 211 | 0.0 | 4.8 | 0.00 | 0.00 | 0.00 | 64 | 1013.9 |
| 20260510001053 | 15 | 265 | 3.2 | 3.2 | 0.00 | 0.00 | 0.00 | 65 | 1013.7 |
| 20260510000548 | 15 | 243 | 1.6 | 1.6 | 0.00 | 0.00 | 0.00 | 64 | 1013.9 |
| 20260510000045 | 16 | 256 | 0.0 | 3.2 | 0.00 | 0.00 | 0.00 | 64 | 1013.7 |
| 20260509235541 | 16 | 213 | 0.0 | 1.6 | 0.00 | 0.00 | 0.00 | 62 | 1013.7 |
| 20260509235038 | 16 | 183 | 3.2 | 4.8 | 0.00 | 0.00 | 0.00 | 61 | 1013.4 |
| 20260509234534 | 16 | 225 | 1.6 | 3.2 | 0.00 | 0.00 | 0.00 | 61 | 1013.6 |
| 20260509234032 | 16 | 262 | 1.6 | 3.2 | 0.00 | 0.00 | 0.00 | 60 | 1013.4 |
| 20260509233529 | 17 | 239 | 1.6 | 4.8 | 0.00 | 0.00 | 0.00 | 59 | 1013.5 |
| 20260509233027 | 17 | 135 | 0.0 | 4.8 | 0.00 | 0.00 | 0.00 | 58 | 1013.4 |
| 20260509232523 | 17 | 322 | 8.0 | 12.9 | 0.00 | 0.00 | 0.00 | 55 | 1013.2 |
| 20260509232020 | 17 | 324 | 1.6 | 6.4 | 0.00 | 0.00 | 0.00 | 57 | 1013.3 |
| 20260509231516 | 17 | 302 | 1.6 | 12.9 | 0.00 | 0.00 | 0.00 | 55 | 1013.2 |
| 20260509231015 | 18 | 179 | 3.2 | 4.8 | 0.00 | 0.00 | 0.00 | 56 | 1013.3 |
| 20260509230511 | 18 | 254 | 3.2 | 9.7 | 0.00 | 0.00 | 0.00 | 55 | 1013.1 |
| 20260509230008 | 18 | 239 | 3.2 | 6.4 | 0.00 | 0.00 | 0.00 | 54 | 1013.3 |
| 20260509225503 | 18 | 196 | 1.6 | 3.2 | 0.00 | 0.00 | 0.00 | 54 | 1013.2 |
| 20260509224959 | 18 | 238 | 0.0 | 3.2 | 0.00 | 0.00 | 0.00 | 55 | 1013.2 |
| 20260509224455 | 18 | 172 | 0.0 | 4.8 | 0.00 | 0.00 | 0.00 | 54 | 1013.4 |
| 20260509223952 | 18 | 199 | 0.0 | 4.8 | 0.00 | 0.00 | 0.00 | 55 | 1013.6 |
| 20260509223448 | 19 | 208 | 3.2 | 6.4 | 0.00 | 0.00 | 0.00 | 54 | 1013.3 |
| 20260509222946 | 19 | 241 | 3.2 | 16.1 | 0.00 | 0.00 | 0.00 | 54 | 1013.3 |
| 20260509222441 | 18 | 243 | 3.2 | 9.7 | 0.00 | 0.00 | 0.00 | 54 | 1013.4 |
| 20260509221937 | 18 | 175 | 0.0 | 6.4 | 0.00 | 0.00 | 0.00 | 56 | 1013.5 |
| 20260509221434 | 18 | 224 | 4.8 | 9.7 | 0.00 | 0.00 | 0.00 | 54 | 1013.5 |
| 20260509220929 | 18 | 251 | 3.2 | 12.9 | 0.00 | 0.00 | 0.00 | 56 | 1013.5 |
| 20260509220425 | 18 | 264 | 3.2 | 9.7 | 0.00 | 0.00 | 0.00 | 54 | 1013.4 |
| 20260509215922 | 19 | 207 | 0.0 | 1.6 | 0.00 | 0.00 | 0.00 | 55 | 1013.4 |
| 20260509215417 | 19 | 193 | 1.6 | 6.4 | 0.00 | 0.00 | 0.00 | 56 | 1013.3 |
| 20260509214915 | 19 | 249 | 4.8 | 9.7 | 0.00 | 0.00 | 0.00 | 53 | 1013.4 |
| 20260509214412 | 17 | 239 | 3.2 | 9.7 | 0.00 | 0.00 | 0.00 | 57 | 1013.5 |
| 20260509213909 | 17 | 195 | 1.6 | 3.2 | 0.00 | 0.00 | 0.00 | 58 | 1013.6 |
| 20260509213405 | 17 | 313 | 9.7 | 12.9 | 0.00 | 0.00 | 0.00 | 55 | 1013.5 |
| 20260509212903 | 17 | 242 | 6.4 | 6.4 | 0.00 | 0.00 | 0.00 | 56 | 1013.3 |
| 20260509212400 | 17 | 227 | 4.8 | 9.7 | 0.00 | 0.00 | 0.00 | 57 | 1013.2 |
| 20260509211856 | 18 | 216 | 3.2 | 4.8 | 0.00 | 0.00 | 0.00 | 56 | 1013.2 |
| 20260509211352 | 18 | 207 | 6.4 | 12.9 | 0.00 | 0.00 | 0.00 | 54 | 1013.0 |
| 20260509210848 | 18 | 136 | 1.6 | 3.2 | 0.00 | 0.00 | 0.00 | 55 | 1013.0 |
| 20260509210346 | 18 | 261 | 4.8 | 9.7 | 0.00 | 0.00 | 0.00 | 54 | 1012.9 |
| 20260509205846 | 18 | 254 | 3.2 | 6.4 | 0.00 | 0.00 | 0.00 | 54 | 1013.1 |
| 20260509205340 | 18 | 279 | 1.6 | 6.4 | 0.00 | 0.00 | 0.00 | 54 | 1013.3 |
| 20260509204837 | 18 | 189 | 6.4 | 9.7 | 0.00 | 0.00 | 0.00 | 52 | 1012.9 |
| 20260509204333 | 18 | 208 | 3.2 | 6.4 | 0.00 | 0.00 | 0.00 | 52 | 1013.0 |
| 20260509203830 | 18 | 208 | 1.6 | 11.3 | 0.00 | 0.00 | 0.00 | 53 | 1013.0 |
| 20260509203327 | 18 | 261 | 4.8 | 6.4 | 0.00 | 0.00 | 0.00 | 53 | 1013.1 |
| 20260509202823 | 18 | 196 | 4.8 | 12.9 | 0.00 | 0.00 | 0.00 | 56 | 1012.9 |
| 20260509202319 | 18 | 220 | 6.4 | 11.3 | 0.00 | 0.00 | 0.00 | 54 | 1012.8 |
| 20260509201818 | 18 | 259 | 6.4 | 9.7 | 0.00 | 0.00 | 0.00 | 54 | 1012.6 |
| 20260509201316 | 18 | 263 | 3.2 | 6.4 | 0.00 | 0.00 | 0.00 | 54 | 1012.6 |
| 20260509200812 | 18 | 284 | 3.2 | 12.9 | 0.00 | 0.00 | 0.00 | 54 | 1012.4 |
| 20260509200307 | 18 | 261 | 4.8 | 12.9 | 0.00 | 0.00 | 0.00 | 52 | 1012.4 |
| 20260509195804 | 18 | 317 | 9.7 | 12.9 | 0.00 | 0.00 | 0.00 | 51 | 1012.5 |
| 20260509195259 | 18 | 191 | 4.8 | 9.7 | 0.00 | 0.00 | 0.00 | 53 | 1012.5 |
| 20260509194759 | 18 | 214 | 3.2 | 6.4 | 0.00 | 0.00 | 0.00 | 54 | 1012.5 |
| 20260509194256 | 18 | 239 | 4.8 | 12.9 | 0.00 | 0.00 | 0.00 | 51 | 1012.2 |
| 20260509193753 | 18 | 252 | 12.9 | 16.1 | 0.00 | 0.00 | 0.00 | 50 | 1012.5 |
| 20260509193252 | 18 | 344 | 11.3 | 20.9 | 0.00 | 0.00 | 0.00 | 52 | 1012.5 |
| 20260509192749 | 18 | 171 | 6.4 | 20.9 | 0.00 | 0.00 | 0.00 | 54 | 1012.4 |
| 20260509192244 | 19 | 178 | 8.0 | 11.3 | 0.00 | 0.00 | 0.00 | 51 | 1012.4 |
| 20260509191739 | 18 | 115 | 3.2 | 4.8 | 0.00 | 0.00 | 0.00 | 57 | 1012.5 |
| 20260509191236 | 18 | 266 | 4.8 | 6.4 | 0.00 | 0.00 | 0.00 | 53 | 1012.4 |
| 20260509190732 | 18 | 251 | 11.3 | 16.1 | 0.00 | 0.00 | 0.00 | 51 | 1012.5 |
| 20260509190229 | 18 | 253 | 6.4 | 16.1 | 0.00 | 0.00 | 0.00 | 51 | 1012.6 |
| 20260509185726 | 18 | 233 | 6.4 | 12.9 | 0.00 | 0.00 | 0.00 | 52 | 1012.3 |
| 20260509185223 | 18 | 234 | 11.3 | 17.7 | 0.00 | 0.00 | 0.00 | 48 | 1012.6 |
| 20260509184720 | 18 | 177 | 3.2 | 11.3 | 0.00 | 0.00 | 0.00 | 52 | 1012.6 |
| 20260509184217 | 18 | 215 | 3.2 | 9.7 | 0.00 | 0.00 | 0.00 | 50 | 1012.8 |
| 20260509183714 | 18 | 226 | 6.4 | 12.9 | 0.00 | 0.00 | 0.00 | 49 | 1012.6 |
| 20260509183210 | 18 | 294 | 1.6 | 12.9 | 0.00 | 0.00 | 0.00 | 51 | 1012.6 |
| 20260509182705 | 18 | 286 | 6.4 | 11.3 | 0.00 | 0.00 | 0.00 | 51 | 1012.5 |
| 20260509182203 | 20 | 290 | 4.8 | 12.9 | 0.00 | 0.00 | 0.00 | 48 | 1012.5 |
| 20260509181700 | 20 | 220 | 3.2 | 4.8 | 0.00 | 0.00 | 0.00 | 46 | 1012.3 |
| 20260509181158 | 18 | 289 | 6.4 | 17.7 | 0.00 | 0.00 | 0.00 | 48 | 1012.5 |
| 20260509180654 | 18 | 353 | 8.0 | 16.1 | 0.00 | 0.00 | 0.00 | 48 | 1012.5 |